createdAt,value
2024-02-26T00:01:08.203Z,1.63
2024-02-26T00:03:37.343Z,2.40
2024-02-26T00:06:07.131Z,1.83
2024-02-26T00:08:35.417Z,3.80
2024-02-26T00:11:04.025Z,2.77
2024-02-26T00:13:32.133Z,2.23
2024-02-26T00:16:00.489Z,2.10
2024-02-26T00:18:28.825Z,2.80
2024-02-26T00:20:56.976Z,1.90
2024-02-26T00:23:26.425Z,2.23
2024-02-26T00:25:55.595Z,2.30
2024-02-26T00:28:26.781Z,2.10
2024-02-26T00:30:57.062Z,3.23
2024-02-26T00:33:25.584Z,2.27
2024-02-26T00:35:53.712Z,2.40
2024-02-26T00:38:21.975Z,2.03
2024-02-26T00:40:51.405Z,2.30
2024-02-26T00:43:19.529Z,1.70
2024-02-26T00:45:48.312Z,2.50
2024-02-26T00:48:16.492Z,1.90
2024-02-26T00:50:45.030Z,2.00
2024-02-26T00:53:13.177Z,1.80
2024-02-26T00:55:41.337Z,2.00
2024-02-26T00:58:11.530Z,1.90
2024-02-26T01:00:39.703Z,1.67
2024-02-26T01:03:07.885Z,1.93
2024-02-26T01:05:36.078Z,1.93
2024-02-26T01:08:04.503Z,2.10
2024-02-26T01:10:32.676Z,1.93
2024-02-26T01:13:00.869Z,2.20
2024-02-26T01:15:30.319Z,1.80
2024-02-26T01:17:58.414Z,2.60
2024-02-26T01:20:26.467Z,2.43
2024-02-26T01:22:54.615Z,2.30
2024-02-26T01:25:22.672Z,2.80
2024-02-26T01:27:50.725Z,2.10
2024-02-26T01:30:18.873Z,2.60
2024-02-26T01:32:48.628Z,2.20
2024-02-26T01:35:16.868Z,2.30
2024-02-26T01:37:45.043Z,2.33
2024-02-26T01:40:18.980Z,2.17
2024-02-26T01:42:47.012Z,2.43
2024-02-26T01:45:22.167Z,2.10
2024-02-26T01:47:53.857Z,2.40
2024-02-26T01:50:23.287Z,1.77
2024-02-26T01:52:53.183Z,1.67
2024-02-26T01:55:22.432Z,2.63
2024-02-26T01:57:53.076Z,2.50
2024-02-26T02:00:22.900Z,2.43
2024-02-26T02:02:53.708Z,2.50
2024-02-26T02:05:23.736Z,1.73
2024-02-26T02:07:52.547Z,2.27
2024-02-26T02:10:24.423Z,1.90
2024-02-26T02:12:52.943Z,2.23
2024-02-26T02:15:21.606Z,1.80
2024-02-26T02:17:50.438Z,2.13
2024-02-26T02:20:20.891Z,2.30
2024-02-26T02:22:50.268Z,1.83
2024-02-26T02:25:18.361Z,2.30
2024-02-26T02:27:46.716Z,2.20
2024-02-26T02:30:16.605Z,2.60
2024-02-26T02:32:45.586Z,2.17
2024-02-26T02:35:13.721Z,2.33
2024-02-26T02:37:41.764Z,1.87
2024-02-26T02:40:11.866Z,2.23
2024-02-26T02:42:39.982Z,2.30
2024-02-26T02:45:33.008Z,3.27
2024-02-26T02:48:01.407Z,2.13
2024-02-26T02:50:30.135Z,1.63
2024-02-26T02:52:58.254Z,2.57
2024-02-26T02:55:27.811Z,1.60
2024-02-26T02:57:56.097Z,1.40
2024-02-26T03:00:24.864Z,2.70
2024-02-26T03:02:53.054Z,2.33
2024-02-26T03:05:21.339Z,2.10
2024-02-26T03:07:49.411Z,2.47
2024-02-26T03:10:17.563Z,1.80
2024-02-26T03:12:47.903Z,1.90
2024-02-26T03:15:16.062Z,2.17
2024-02-26T03:17:44.278Z,2.00
2024-02-26T03:20:12.973Z,1.80
2024-02-26T03:22:41.935Z,2.33
2024-02-26T03:25:10.711Z,1.60
2024-02-26T03:27:38.910Z,1.50
2024-02-26T03:30:10.151Z,2.47
2024-02-26T03:32:38.336Z,2.37
2024-02-26T03:35:08.548Z,2.20
2024-02-26T03:37:36.778Z,1.90
2024-02-26T03:40:05.344Z,1.80
2024-02-26T03:42:33.505Z,1.87
2024-02-26T03:45:01.835Z,2.00
2024-02-26T03:47:31.519Z,1.83
2024-02-26T03:50:00.472Z,1.60
2024-02-26T03:52:28.643Z,1.83
2024-02-26T03:54:56.844Z,2.00
2024-02-26T03:57:24.977Z,2.03
2024-02-26T03:59:53.102Z,1.50
2024-02-26T04:02:21.543Z,1.90
2024-02-26T04:04:51.151Z,1.80
2024-02-26T04:07:19.384Z,1.50
2024-02-26T04:09:47.512Z,2.00
2024-02-26T04:12:15.818Z,2.03
2024-02-26T04:14:44.142Z,2.60
2024-02-26T04:17:12.507Z,1.90
2024-02-26T04:19:40.622Z,2.30
2024-02-26T04:22:10.132Z,2.17
2024-02-26T04:24:38.902Z,1.73
2024-02-26T04:27:07.305Z,2.00
2024-02-26T04:29:35.435Z,2.07
2024-02-26T04:32:03.895Z,2.40
2024-02-26T04:34:32.054Z,1.70
2024-02-26T04:37:00.125Z,1.60
2024-02-26T04:39:29.647Z,2.03
2024-02-26T04:41:57.823Z,2.10
2024-02-26T04:44:26.250Z,2.00
2024-02-26T04:46:54.372Z,1.90
2024-02-26T04:49:22.696Z,1.83
2024-02-26T04:51:50.893Z,2.13
2024-02-26T04:54:19.620Z,1.90
2024-02-26T04:56:49.200Z,1.90
2024-02-26T04:59:17.522Z,2.07
2024-02-26T05:01:45.670Z,1.50
2024-02-26T05:04:13.955Z,2.13
2024-02-26T05:06:42.187Z,1.70
2024-02-26T05:09:10.470Z,1.73
2024-02-26T05:11:40.622Z,2.20
2024-02-26T05:14:11.225Z,2.37
2024-02-26T05:16:39.554Z,1.90
2024-02-26T05:19:07.901Z,1.80
2024-02-26T05:21:36.447Z,2.37
2024-02-26T05:24:04.926Z,2.20
2024-02-26T05:26:33.096Z,2.10
2024-02-26T05:29:01.574Z,2.10
2024-02-26T05:31:30.980Z,1.77
2024-02-26T05:33:59.350Z,1.60
2024-02-26T05:36:29.832Z,3.50
2024-02-26T05:38:58.836Z,2.57
2024-02-26T05:41:27.639Z,2.60
2024-02-26T05:43:56.237Z,2.53
2024-02-26T05:46:24.736Z,2.13
2024-02-26T05:48:56.048Z,1.90
2024-02-26T05:51:24.295Z,2.30
2024-02-26T05:53:55.833Z,2.60
2024-02-26T05:56:24.372Z,2.60
2024-02-26T05:58:53.130Z,1.70
2024-02-26T06:01:22.824Z,2.57
2024-02-26T06:03:51.123Z,2.70
2024-02-26T06:06:20.813Z,2.40
2024-02-26T06:08:48.979Z,2.20
2024-02-26T06:11:17.160Z,1.97
2024-02-26T06:13:45.380Z,1.97
2024-02-26T06:16:13.515Z,2.20
2024-02-26T06:18:41.756Z,1.90
2024-02-26T06:21:12.492Z,1.87
2024-02-26T06:23:42.337Z,1.90
2024-02-26T06:26:11.468Z,2.50
2024-02-26T06:28:43.868Z,5.60
2024-02-26T06:31:12.019Z,3.57
2024-02-26T06:33:40.300Z,4.30
2024-02-26T06:36:09.118Z,4.27
2024-02-26T06:38:37.190Z,3.60
2024-02-26T06:41:06.792Z,3.80
2024-02-26T06:43:34.857Z,4.50
2024-02-26T06:46:03.558Z,4.37
2024-02-26T06:48:31.890Z,3.60
2024-02-26T06:51:00.127Z,4.50
2024-02-26T06:53:28.538Z,3.67
2024-02-26T06:55:56.812Z,4.20
2024-02-26T06:58:26.291Z,4.00
2024-02-26T07:00:54.633Z,4.33
2024-02-26T07:03:24.355Z,3.80
2024-02-26T07:05:53.052Z,4.60
2024-02-26T07:08:21.627Z,3.60
2024-02-26T07:10:49.739Z,3.67
2024-02-26T07:13:17.816Z,4.73
2024-02-26T07:15:47.392Z,3.93
2024-02-26T07:18:15.675Z,3.23
2024-02-26T07:20:43.906Z,4.17
2024-02-26T07:23:12.185Z,3.40
2024-02-26T07:25:40.962Z,4.23
2024-02-26T07:28:09.207Z,3.87
2024-02-26T07:30:37.335Z,3.70
2024-02-26T07:33:08.011Z,3.57
2024-02-26T07:35:37.567Z,3.73
2024-02-26T07:38:05.912Z,3.80
2024-02-26T07:40:34.037Z,3.63
2024-02-26T07:43:02.175Z,3.43
2024-02-26T07:45:30.455Z,3.77
2024-02-26T07:47:58.610Z,3.73
2024-02-26T07:50:28.055Z,3.30
2024-02-26T07:52:56.255Z,3.17
2024-02-26T07:55:24.295Z,4.03
2024-02-26T07:57:52.277Z,4.20
2024-02-26T08:00:21.307Z,3.90
2024-02-26T08:02:49.450Z,4.87
2024-02-26T08:05:17.657Z,3.70
2024-02-26T08:07:47.057Z,3.30
2024-02-26T08:10:15.402Z,3.90
2024-02-26T08:12:43.544Z,4.57
2024-02-26T08:15:12.702Z,5.37
2024-02-26T08:17:40.914Z,4.57
2024-02-26T08:20:10.286Z,4.70
2024-02-26T08:22:40.355Z,3.50
2024-02-26T08:25:11.205Z,4.20
2024-02-26T08:27:39.285Z,5.30
2024-02-26T08:30:08.749Z,4.97
2024-02-26T08:32:36.897Z,3.47
2024-02-26T08:35:15.950Z,3.83
2024-02-26T08:37:46.894Z,4.40
2024-02-26T08:40:16.760Z,3.70
2024-02-26T08:42:44.787Z,3.80
2024-02-26T08:45:13.790Z,3.70
2024-02-26T08:47:41.994Z,3.97
2024-02-26T08:50:13.225Z,3.23
2024-02-26T08:52:41.595Z,4.40
2024-02-26T08:55:10.946Z,5.10
2024-02-26T08:57:40.384Z,4.87
2024-02-26T09:00:09.918Z,4.33
2024-02-26T09:02:39.802Z,4.30
2024-02-26T09:05:08.691Z,2.90
2024-02-26T09:07:36.880Z,4.80
2024-02-26T09:10:05.805Z,3.97
2024-02-26T09:12:33.949Z,3.43
2024-02-26T09:15:03.509Z,3.77
2024-02-26T09:17:31.691Z,3.47
2024-02-26T09:19:59.807Z,4.80
2024-02-26T09:22:27.970Z,6.23
2024-02-26T09:24:56.127Z,4.57
2024-02-26T09:27:24.816Z,3.27
2024-02-26T09:29:53.050Z,3.70
2024-02-26T09:32:22.518Z,3.90
2024-02-26T09:34:50.524Z,3.43
2024-02-26T09:37:22.458Z,4.10
2024-02-26T09:39:50.862Z,3.97
2024-02-26T09:42:21.532Z,4.03
2024-02-26T09:44:52.143Z,4.47
2024-02-26T09:47:21.704Z,4.27
2024-02-26T09:49:54.258Z,3.87
2024-02-26T09:52:23.360Z,2.93
2024-02-26T09:54:51.536Z,4.07
2024-02-26T09:57:19.698Z,3.07
2024-02-26T09:59:50.465Z,4.47
2024-02-26T10:02:20.099Z,3.90
2024-02-26T10:04:52.583Z,4.27
2024-02-26T10:07:30.896Z,3.63
2024-02-26T10:09:59.116Z,4.67
2024-02-26T10:12:29.565Z,3.80
2024-02-26T10:14:57.659Z,4.20
2024-02-26T10:17:26.226Z,3.83
2024-02-26T10:19:57.716Z,3.70
2024-02-26T10:22:29.618Z,3.47
2024-02-26T10:24:57.630Z,3.53
2024-02-26T10:27:26.449Z,4.27
2024-02-26T10:29:54.698Z,3.30
2024-02-26T10:32:22.959Z,4.10
2024-02-26T10:34:51.087Z,4.20
2024-02-26T10:37:19.644Z,4.23
2024-02-26T10:39:50.479Z,4.20
2024-02-26T10:42:20.845Z,3.30
2024-02-26T10:44:49.837Z,3.83
2024-02-26T10:47:18.577Z,4.13
2024-02-26T10:49:50.257Z,4.53
2024-02-26T10:52:21.284Z,4.77
2024-02-26T10:54:57.658Z,5.87
2024-02-26T10:57:33.648Z,4.90
2024-02-26T11:00:05.461Z,3.90
2024-02-26T11:02:35.418Z,4.20
2024-02-26T11:05:06.055Z,4.03
2024-02-26T11:07:35.248Z,4.20
2024-02-26T11:10:05.548Z,4.13
2024-02-26T11:12:36.946Z,3.70
2024-02-26T11:15:06.400Z,3.57
2024-02-26T11:17:39.730Z,3.70
2024-02-26T11:20:16.884Z,3.63
2024-02-26T11:22:45.173Z,4.17
2024-02-26T11:25:14.935Z,3.87
2024-02-26T11:27:48.537Z,3.47
2024-02-26T11:30:18.241Z,3.60
2024-02-26T11:32:48.064Z,4.77
2024-02-26T11:35:19.005Z,5.33
2024-02-26T11:37:55.784Z,5.10
2024-02-26T11:40:26.805Z,4.80
2024-02-26T11:42:55.978Z,3.97
2024-02-26T11:45:53.737Z,4.50
2024-02-26T11:48:27.095Z,4.60
2024-02-26T11:50:56.913Z,4.60
2024-02-26T11:53:28.094Z,3.70
2024-02-26T11:56:30.490Z,4.70
2024-02-26T11:59:04.328Z,3.90
2024-02-26T12:01:38.976Z,4.03
2024-02-26T12:04:08.359Z,3.70
2024-02-26T12:06:48.032Z,5.53
2024-02-26T12:09:32.532Z,7.57
2024-02-26T12:12:03.420Z,7.57
2024-02-26T12:14:31.860Z,5.17
2024-02-26T12:17:00.834Z,3.93
2024-02-26T12:19:30.621Z,4.37
2024-02-26T12:21:58.777Z,4.40
2024-02-26T12:24:27.300Z,3.67
2024-02-26T12:26:55.367Z,4.33
2024-02-26T12:29:24.697Z,3.87
2024-02-26T12:31:52.797Z,3.50
2024-02-26T12:34:21.220Z,5.13
2024-02-26T12:36:49.381Z,3.77
2024-02-26T12:39:17.482Z,3.57
2024-02-26T12:41:50.550Z,3.87
2024-02-26T12:44:18.667Z,4.17
2024-02-26T12:46:48.295Z,3.60
2024-02-26T12:49:19.215Z,3.53
2024-02-26T12:51:47.551Z,3.73
2024-02-26T12:54:16.543Z,3.70
2024-02-26T12:56:44.753Z,3.73
2024-02-26T12:59:12.972Z,3.87
2024-02-26T13:01:41.366Z,4.87
2024-02-26T13:04:11.661Z,3.47
2024-02-26T13:06:40.097Z,3.40
2024-02-26T13:09:08.406Z,3.57
2024-02-26T13:11:36.629Z,3.40
2024-02-26T13:14:07.941Z,3.47
2024-02-26T13:16:36.983Z,3.33
2024-02-26T13:19:12.482Z,3.10
2024-02-26T13:21:40.626Z,3.10
2024-02-26T13:24:09.053Z,8.10
2024-02-26T13:26:37.121Z,7.50
2024-02-26T13:29:05.515Z,5.30
2024-02-26T13:31:33.856Z,4.33
2024-02-26T13:34:01.974Z,3.70
2024-02-26T13:36:31.543Z,3.53
2024-02-26T13:38:59.685Z,3.20
2024-02-26T13:41:28.278Z,4.33
2024-02-26T13:43:56.312Z,3.50
2024-02-26T13:46:24.357Z,3.63
2024-02-26T13:48:55.020Z,2.90
2024-02-26T13:51:23.163Z,3.03
2024-02-26T13:53:52.512Z,3.73
2024-02-26T13:56:20.622Z,3.67
2024-02-26T13:58:49.284Z,3.17
2024-02-26T14:01:17.330Z,3.10
2024-02-26T14:03:45.554Z,3.40
2024-02-26T14:06:14.320Z,3.80
2024-02-26T14:08:42.660Z,3.03
2024-02-26T14:11:12.065Z,3.63
2024-02-26T14:13:41.481Z,4.13
2024-02-26T14:16:11.750Z,3.57
2024-02-26T14:18:40.226Z,3.83
2024-02-26T14:21:08.492Z,3.87
2024-02-26T14:23:37.161Z,3.20
2024-02-26T14:26:05.577Z,3.47
2024-02-26T14:28:36.767Z,3.47
2024-02-26T14:31:11.512Z,3.60
2024-02-26T14:33:41.878Z,3.40
2024-02-26T14:36:10.714Z,3.57
2024-02-26T14:38:39.912Z,3.20
2024-02-26T14:41:07.948Z,3.20
2024-02-26T14:43:37.791Z,3.57
2024-02-26T14:46:05.968Z,3.40
2024-02-26T14:48:34.322Z,6.30
2024-02-26T14:51:02.560Z,3.63
2024-02-26T14:53:30.584Z,3.50
2024-02-26T14:55:58.620Z,3.10
2024-02-26T14:58:26.591Z,4.20
2024-02-26T15:00:55.999Z,3.13
2024-02-26T15:03:24.090Z,2.97
2024-02-26T15:05:52.674Z,3.50
2024-02-26T15:08:20.764Z,3.43
2024-02-26T15:10:49.852Z,3.17
2024-02-26T15:13:19.325Z,3.23
2024-02-26T15:15:48.129Z,3.30
2024-02-26T15:18:18.118Z,3.53
2024-02-26T15:20:47.341Z,3.80
2024-02-26T15:23:15.723Z,3.60
2024-02-26T15:25:44.534Z,5.17
2024-02-26T15:28:15.164Z,3.47
2024-02-26T15:30:43.591Z,3.10
2024-02-26T15:33:13.136Z,3.70
2024-02-26T15:35:43.526Z,4.47
2024-02-26T15:38:11.676Z,3.70
2024-02-26T15:40:39.880Z,3.30
2024-02-26T15:43:08.060Z,4.47
2024-02-26T15:45:36.066Z,4.30
2024-02-26T15:48:04.387Z,5.30
2024-02-26T15:50:32.468Z,4.13
2024-02-26T15:53:02.360Z,3.43
2024-02-26T15:55:30.845Z,3.83
2024-02-26T15:57:58.806Z,3.87
2024-02-26T16:00:27.118Z,3.83
2024-02-26T16:02:55.091Z,3.83
2024-02-26T16:05:23.207Z,3.80
2024-02-26T16:07:56.037Z,3.83
2024-02-26T16:10:28.364Z,5.00
2024-02-26T16:13:00.438Z,3.70
2024-02-26T16:15:30.565Z,3.20
2024-02-26T16:17:59.833Z,4.07
2024-02-26T16:20:30.598Z,4.97
2024-02-26T16:22:59.730Z,3.80
2024-02-26T16:25:29.418Z,4.07
2024-02-26T16:27:57.400Z,3.70
2024-02-26T16:30:25.472Z,3.73
2024-02-26T16:33:15.048Z,2.97
2024-02-26T16:35:45.176Z,3.60
2024-02-26T16:38:13.272Z,5.10
2024-02-26T16:40:43.673Z,5.17
2024-02-26T16:43:11.675Z,2.70
2024-02-26T16:45:40.908Z,1.97
2024-02-26T16:48:09.533Z,1.97
2024-02-26T16:50:37.710Z,2.80
2024-02-26T16:53:05.944Z,2.20
2024-02-26T16:55:33.947Z,2.30
2024-02-26T16:58:03.369Z,2.43
2024-02-26T17:00:33.064Z,2.47
2024-02-26T17:03:01.857Z,1.90
2024-02-26T17:05:30.379Z,2.10
2024-02-26T17:07:58.357Z,2.30
2024-02-26T17:10:26.521Z,2.57
2024-02-26T17:12:54.587Z,2.03
2024-02-26T17:15:27.218Z,2.30
2024-02-26T17:17:55.446Z,2.40
2024-02-26T17:20:23.711Z,2.40
2024-02-26T17:22:51.787Z,2.27
2024-02-26T17:25:20.509Z,1.80
2024-02-26T17:27:48.641Z,2.03
2024-02-26T17:30:16.795Z,3.10
2024-02-26T17:32:46.258Z,2.63
2024-02-26T17:35:16.496Z,4.10
2024-02-26T17:37:45.507Z,3.40
2024-02-26T17:40:14.357Z,4.37
2024-02-26T17:42:42.514Z,3.10
2024-02-26T17:45:14.533Z,2.63
2024-02-26T17:47:42.995Z,3.70
2024-02-26T17:50:12.883Z,3.07
2024-02-26T17:52:40.910Z,2.67
2024-02-26T17:55:10.003Z,2.93
2024-02-26T17:57:38.249Z,2.87
2024-02-26T18:00:07.973Z,3.10
2024-02-26T18:02:36.444Z,2.90
2024-02-26T18:05:05.909Z,3.00
2024-02-26T18:07:41.412Z,2.53
2024-02-26T18:10:12.452Z,2.87
2024-02-26T18:12:44.389Z,3.20
2024-02-26T18:15:12.866Z,3.30
2024-02-26T18:17:56.901Z,3.30
2024-02-26T18:20:27.431Z,2.80
2024-02-26T18:22:58.839Z,3.13
2024-02-26T18:25:30.235Z,3.10
2024-02-26T18:28:01.764Z,3.20
2024-02-26T18:30:29.996Z,4.13
2024-02-26T18:33:03.095Z,3.47
2024-02-26T18:35:31.813Z,4.00
2024-02-26T18:38:02.387Z,3.27
2024-02-26T18:40:30.894Z,3.47
2024-02-26T18:42:59.928Z,2.87
2024-02-26T18:45:28.742Z,2.87
2024-02-26T18:48:00.634Z,3.37
2024-02-26T18:50:28.783Z,3.23
2024-02-26T18:53:02.783Z,3.40
2024-02-26T18:55:34.420Z,4.30
2024-02-26T18:58:05.059Z,3.70
2024-02-26T19:00:33.363Z,3.17
2024-02-26T19:03:01.686Z,3.00
2024-02-26T19:05:32.474Z,3.20
2024-02-26T19:08:02.658Z,4.60
2024-02-26T19:10:32.694Z,3.43
2024-02-26T19:13:00.798Z,2.40
2024-02-26T19:15:29.486Z,6.40
2024-02-26T19:18:02.058Z,4.10
2024-02-26T19:20:32.433Z,5.30
2024-02-26T19:23:00.561Z,2.97
2024-02-26T19:25:29.052Z,2.90
2024-02-26T19:27:59.012Z,2.87
2024-02-26T19:30:29.802Z,2.80
2024-02-26T19:33:00.985Z,4.20
2024-02-26T19:35:29.254Z,3.43
2024-02-26T19:38:01.745Z,3.43
2024-02-26T19:40:29.746Z,2.60
2024-02-26T19:42:59.713Z,3.67
2024-02-26T19:45:30.328Z,3.50
2024-02-26T19:48:00.624Z,2.70
2024-02-26T19:50:29.180Z,3.20
2024-02-26T19:52:58.367Z,2.90
2024-02-26T19:55:28.806Z,3.50
2024-02-26T19:57:59.654Z,3.70
2024-02-26T20:00:34.034Z,3.40
2024-02-26T20:03:04.256Z,3.30
2024-02-26T20:05:32.840Z,2.47
2024-02-26T20:08:01.280Z,2.87
2024-02-26T20:10:30.238Z,2.90
2024-02-26T20:13:01.522Z,3.40
2024-02-26T20:15:30.420Z,4.77
2024-02-26T20:17:58.875Z,3.70
2024-02-26T20:20:30.487Z,2.80
2024-02-26T20:22:58.947Z,3.43
2024-02-26T20:25:27.022Z,4.33
2024-02-26T20:27:55.750Z,2.93
2024-02-26T20:30:29.528Z,2.90
2024-02-26T20:32:57.846Z,3.07
2024-02-26T20:35:28.116Z,2.40
2024-02-26T20:38:02.222Z,2.70
2024-02-26T20:40:30.427Z,2.53
2024-02-26T20:42:58.655Z,2.50
2024-02-26T20:45:29.673Z,3.10
2024-02-26T20:47:58.799Z,3.70
2024-02-26T20:50:27.370Z,7.40
2024-02-26T20:52:57.808Z,3.57
2024-02-26T20:55:29.575Z,3.37
2024-02-26T20:57:58.926Z,2.57
2024-02-26T21:00:28.745Z,3.87
2024-02-26T21:02:58.703Z,3.00
2024-02-26T21:05:29.015Z,5.20
2024-02-26T21:07:57.571Z,4.10
2024-02-26T21:10:31.612Z,4.87
2024-02-26T21:13:00.391Z,4.47
2024-02-26T21:15:33.992Z,2.80
2024-02-26T21:18:02.641Z,3.10
2024-02-26T21:20:34.182Z,3.07
2024-02-26T21:23:05.568Z,2.87
2024-02-26T21:25:33.826Z,2.47
2024-02-26T21:28:08.443Z,3.10
2024-02-26T21:30:38.100Z,2.87
2024-02-26T21:33:07.758Z,2.90
2024-02-26T21:35:36.942Z,2.60
2024-02-26T21:38:08.304Z,2.67
2024-02-26T21:40:38.193Z,2.70
2024-02-26T21:43:07.078Z,2.30
2024-02-26T21:45:37.906Z,2.77
2024-02-26T21:48:08.723Z,2.90
2024-02-26T21:50:38.144Z,3.17
2024-02-26T21:53:09.787Z,3.50
2024-02-26T21:55:40.946Z,3.20
2024-02-26T21:58:12.073Z,2.87
2024-02-26T22:00:40.286Z,3.30
2024-02-26T22:03:09.932Z,2.13
2024-02-26T22:05:38.755Z,2.97
2024-02-26T22:08:09.394Z,2.60
2024-02-26T22:10:39.054Z,2.53
2024-02-26T22:13:07.239Z,2.90
2024-02-26T22:15:35.680Z,2.70
2024-02-26T22:18:04.300Z,2.97
2024-02-26T22:20:33.814Z,2.40
2024-02-26T22:23:01.879Z,2.90
2024-02-26T22:25:30.449Z,2.20
2024-02-26T22:27:58.784Z,3.30
2024-02-26T22:30:26.796Z,2.60
2024-02-26T22:32:55.326Z,6.37
2024-02-26T22:35:24.103Z,3.83
2024-02-26T22:37:53.645Z,4.73
2024-02-26T22:40:21.666Z,2.53
2024-02-26T22:42:56.411Z,2.77
2024-02-26T22:45:25.688Z,3.23
2024-02-26T22:47:54.039Z,3.87
2024-02-26T22:50:22.276Z,3.90
2024-02-26T22:52:50.940Z,2.40
2024-02-26T22:55:24.608Z,2.40
2024-02-26T22:57:52.889Z,2.00
2024-02-26T23:00:32.829Z,2.50
2024-02-26T23:03:01.533Z,2.47
2024-02-26T23:05:30.445Z,2.13
2024-02-26T23:07:58.855Z,2.40
2024-02-26T23:10:28.809Z,2.60
2024-02-26T23:12:57.299Z,2.13
2024-02-26T23:15:25.521Z,2.40
2024-02-26T23:17:54.286Z,2.37
2024-02-26T23:20:23.473Z,1.90
2024-02-26T23:22:52.466Z,2.37
2024-02-26T23:25:20.938Z,2.40
2024-02-26T23:27:50.763Z,2.10
2024-02-26T23:30:20.330Z,3.20
2024-02-26T23:32:48.533Z,2.83
2024-02-26T23:35:16.557Z,2.10
2024-02-26T23:37:44.592Z,2.43
2024-02-26T23:40:12.822Z,1.87
2024-02-26T23:42:41.288Z,2.30
2024-02-26T23:45:11.344Z,2.60
2024-02-26T23:47:39.780Z,2.27
2024-02-26T23:50:08.710Z,3.43
2024-02-26T23:52:36.788Z,6.03
2024-02-26T23:55:05.035Z,5.80
2024-02-26T23:57:33.104Z,3.10
